Time;durP1;ratioP1;P1;durP2;ratioP2;P2;SDS_P1;SDS_P2;PMS_P1;PMS_P2;Temp;Humidity;BMP_temperature;BMP_pressure;BME280_temperature;BME280_humidity;BME280_pressure;Samples;Min_cycle;Max_cycle;Signal;HPM_P1;HPM_P2
2021/10/27 00:00:32;;;;;;;9.52;4.82;;;7.10;86.00;;;;;;5135138;27;20476;-76
2021/10/27 00:02:58;;;;;;;13.00;5.53;;;7.10;86.10;;;;;;5135085;27;20483;-74
2021/10/27 00:05:24;;;;;;;12.93;5.65;;;7.00;86.50;;;;;;5135021;27;20479;-78
2021/10/27 00:07:50;;;;;;;10.75;5.15;;;7.00;86.70;;;;;;5135022;27;20098;-77
2021/10/27 00:10:16;;;;;;;8.57;5.45;;;7.00;86.80;;;;;;5134922;27;20016;-78
2021/10/27 00:12:42;;;;;;;9.73;5.10;;;7.10;86.80;;;;;;5134947;27;20027;-77
2021/10/27 00:15:10;;;;;;;8.65;4.90;;;7.10;86.50;;;;;;5116475;27;20356;-79
2021/10/27 00:17:37;;;;;;;8.82;5.22;;;7.10;86.20;;;;;;5134833;27;20023;-78
2021/10/27 00:20:05;;;;;;;7.65;4.78;;;7.20;86.00;;;;;;5134630;27;20053;-78
2021/10/27 00:22:30;;;;;;;9.35;5.13;;;7.10;85.80;;;;;;5134993;27;20036;-78
2021/10/27 00:24:56;;;;;;;9.23;4.72;;;7.10;85.70;;;;;;5133958;27;20118;-79
2021/10/27 00:27:22;;;;;;;7.68;5.35;;;7.10;85.70;;;;;;5134659;27;20027;-76
2021/10/27 00:29:48;;;;;;;7.05;5.05;;;7.10;85.70;;;;;;5134493;27;20049;-77
2021/10/27 00:32:14;;;;;;;9.85;5.82;;;7.00;85.80;;;;;;5134846;27;20059;-78
2021/10/27 00:34:39;;;;;;;10.52;5.25;;;7.00;86.10;;;;;;5134354;27;20375;-76
2021/10/27 00:37:05;;;;;;;9.05;4.97;;;6.90;86.30;;;;;;5134403;27;20069;-76
2021/10/27 00:39:32;;;;;;;10.13;5.22;;;6.90;86.20;;;;;;5134419;27;20073;-76
2021/10/27 00:41:57;;;;;;;8.85;4.63;;;6.90;86.50;;;;;;5134399;27;20012;-76
2021/10/27 00:44:25;;;;;;;9.77;5.35;;;6.90;86.20;;;;;;5134202;27;20031;-76
2021/10/27 00:47:01;;;;;;;11.90;5.53;;;6.90;85.70;;;;;;5134127;27;20015;-76
2021/10/27 00:49:29;;;;;;;8.85;4.68;;;6.90;86.00;;;;;;5134227;27;20062;-76
2021/10/27 00:51:55;;;;;;;11.45;5.70;;;6.80;86.30;;;;;;5134226;27;20068;-76
2021/10/27 00:54:22;;;;;;;9.20;5.57;;;6.80;86.30;;;;;;5134199;27;20147;-77
2021/10/27 00:56:51;;;;;;;8.80;5.03;;;6.80;86.20;;;;;;5134173;27;20023;-76
2021/10/27 00:59:17;;;;;;;7.05;4.72;;;6.80;86.30;;;;;;5134060;27;20019;-77
2021/10/27 01:01:42;;;;;;;11.25;4.93;;;6.70;87.00;;;;;;5134156;27;20383;-77
2021/10/27 01:04:09;;;;;;;8.82;6.10;;;6.70;87.40;;;;;;5133970;27;20033;-76
2021/10/27 01:06:35;;;;;;;10.98;5.47;;;6.70;87.60;;;;;;5134153;27;20016;-77
2021/10/27 01:09:00;;;;;;;11.75;5.30;;;6.70;87.80;;;;;;5133993;27;20026;-75
2021/10/27 01:11:27;;;;;;;8.30;5.00;;;6.70;88.30;;;;;;5133991;28;20060;-76
2021/10/27 01:13:53;;;;;;;10.15;5.55;;;6.70;88.30;;;;;;5133747;28;20475;-76
2021/10/27 01:16:18;;;;;;;9.27;5.40;;;6.70;89.00;;;;;;5133775;28;20026;-75
2021/10/27 01:18:44;;;;;;;11.93;5.47;;;6.70;88.00;;;;;;5133792;28;20046;-77
2021/10/27 01:21:10;;;;;;;8.90;5.35;;;6.70;87.90;;;;;;5133912;28;20096;-78
2021/10/27 01:23:35;;;;;;;13.50;5.43;;;6.70;87.80;;;;;;5133796;28;20015;-77
2021/10/27 01:26:06;;;;;;;11.52;5.88;;;6.70;87.60;;;;;;5133718;28;20043;-77
2021/10/27 01:28:37;;;;;;;10.90;5.68;;;6.60;87.60;;;;;;5133850;28;20026;-76
2021/10/27 01:31:03;;;;;;;9.73;6.15;;;6.60;87.80;;;;;;5133764;28;20027;-77
2021/10/27 01:33:28;;;;;;;9.40;5.97;;;6.50;88.20;;;;;;5133746;28;20024;-77
2021/10/27 01:35:54;;;;;;;9.70;5.35;;;6.50;88.40;;;;;;5133706;28;20029;-76
2021/10/27 01:38:19;;;;;;;10.35;6.10;;;6.50;88.40;;;;;;5133598;28;20486;-75
2021/10/27 01:40:45;;;;;;;14.00;5.95;;;6.60;88.60;;;;;;5133784;28;20386;-76
2021/10/27 01:43:11;;;;;;;10.23;5.25;;;6.60;88.60;;;;;;5133920;28;20636;-77
2021/10/27 01:45:36;;;;;;;9.75;5.32;;;6.60;89.00;;;;;;5133897;28;20031;-77
2021/10/27 01:48:02;;;;;;;9.52;6.43;;;6.50;89.40;;;;;;5133504;28;20030;-77
2021/10/27 01:50:27;;;;;;;12.35;5.70;;;6.60;89.60;;;;;;5133639;28;20027;-78
2021/10/27 01:52:53;;;;;;;12.35;5.82;;;6.60;89.50;;;;;;5133534;28;20047;-77
2021/10/27 01:55:19;;;;;;;11.45;5.25;;;6.60;90.20;;;;;;5133546;28;20038;-77
2021/10/27 01:57:44;;;;;;;9.73;5.57;;;6.60;89.30;;;;;;5134199;27;20542;-78
2021/10/27 02:00:11;;;;;;;8.45;5.38;;;6.60;88.90;;;;;;5137298;27;20034;-78
2021/10/27 02:02:36;;;;;;;8.25;5.32;;;6.50;89.10;;;;;;5137440;27;20080;-78
2021/10/27 02:05:02;;;;;;;15.98;5.28;;;6.50;89.30;;;;;;5137368;27;20039;-77
2021/10/27 02:07:28;;;;;;;9.70;5.35;;;6.50;89.30;;;;;;5137307;27;20037;-77
2021/10/27 02:09:53;;;;;;;8.30;5.38;;;6.50;89.50;;;;;;5137274;27;20023;-77
2021/10/27 02:12:19;;;;;;;13.32;5.88;;;6.60;89.30;;;;;;5137541;27;20023;-77
2021/10/27 02:14:44;;;;;;;9.30;5.22;;;6.60;89.10;;;;;;5137238;27;20031;-78
2021/10/27 02:17:10;;;;;;;10.35;5.50;;;6.50;89.30;;;;;;5137120;27;20487;-77
2021/10/27 02:19:35;;;;;;;10.02;5.65;;;6.50;89.50;;;;;;5137046;27;20031;-77
2021/10/27 02:22:01;;;;;;;9.82;5.95;;;6.50;89.40;;;;;;5136992;27;20031;-78
2021/10/27 02:24:27;;;;;;;11.32;6.20;;;6.50;89.10;;;;;;5136993;27;20494;-76
2021/10/27 02:26:52;;;;;;;9.70;5.00;;;6.50;88.30;;;;;;5136832;27;20034;-76
2021/10/27 02:29:18;;;;;;;12.32;5.05;;;6.50;87.60;;;;;;5136919;27;20054;-76
2021/10/27 02:31:44;;;;;;;12.82;6.25;;;6.40;88.40;;;;;;5136917;27;20027;-76
2021/10/27 02:34:10;;;;;;;13.35;6.13;;;6.30;89.40;;;;;;5136909;27;20023;-77
2021/10/27 02:36:36;;;;;;;11.70;5.15;;;6.30;89.70;;;;;;5136763;27;20020;-77
2021/10/27 02:39:01;;;;;;;14.77;5.82;;;6.30;89.60;;;;;;5136511;27;20422;-75
2021/10/27 02:41:27;;;;;;;8.65;5.57;;;6.40;89.50;;;;;;5136753;27;20408;-76
2021/10/27 02:43:52;;;;;;;11.88;5.63;;;6.40;89.60;;;;;;5136446;27;20094;-77
2021/10/27 02:46:18;;;;;;;9.43;5.38;;;6.40;89.40;;;;;;5136562;27;20044;-77
2021/10/27 02:48:44;;;;;;;7.70;5.25;;;6.40;89.60;;;;;;5136496;27;20399;-77
2021/10/27 02:51:10;;;;;;;21.27;5.95;;;6.40;89.20;;;;;;5136440;27;20038;-76
2021/10/27 02:53:35;;;;;;;8.13;5.40;;;6.40;89.60;;;;;;5136369;27;20464;-76
2021/10/27 02:56:01;;;;;;;11.05;5.25;;;6.30;89.90;;;;;;5136373;27;20101;-77
2021/10/27 02:58:26;;;;;;;8.60;4.82;;;6.40;89.90;;;;;;5136304;27;20023;-76
2021/10/27 03:00:52;;;;;;;7.65;5.20;;;6.30;89.80;;;;;;5136077;27;20062;-77
2021/10/27 03:03:18;;;;;;;10.32;4.97;;;6.40;90.00;;;;;;5136168;27;20030;-77
2021/10/27 03:05:43;;;;;;;8.43;4.57;;;6.40;90.00;;;;;;5136040;27;20395;-78
2021/10/27 03:08:09;;;;;;;11.45;5.20;;;6.40;89.70;;;;;;5136220;27;20019;-78
2021/10/27 03:10:35;;;;;;;9.63;4.95;;;6.40;89.50;;;;;;5134998;27;20031;-78
2021/10/27 03:13:00;;;;;;;11.35;5.55;;;6.40;89.20;;;;;;5135966;27;20072;-78
2021/10/27 03:15:26;;;;;;;8.63;5.28;;;6.40;89.00;;;;;;5135977;27;20028;-78
2021/10/27 03:17:52;;;;;;;14.15;5.28;;;6.40;89.10;;;;;;5136120;27;20052;-78
2021/10/27 03:20:18;;;;;;;9.27;4.80;;;6.40;89.10;;;;;;5136052;27;20051;-78
2021/10/27 03:22:44;;;;;;;10.65;5.13;;;6.40;89.00;;;;;;5135830;27;20023;-78
2021/10/27 03:25:09;;;;;;;8.35;4.35;;;6.40;88.70;;;;;;5135692;27;20467;-78
2021/10/27 03:27:35;;;;;;;7.47;4.88;;;6.40;88.60;;;;;;5135949;27;20065;-75
2021/10/27 03:30:01;;;;;;;9.02;4.95;;;6.30;89.20;;;;;;5135812;27;20026;-75
2021/10/27 03:32:27;;;;;;;8.70;5.05;;;6.20;88.90;;;;;;5135777;27;20053;-76
2021/10/27 03:34:53;;;;;;;10.48;5.53;;;6.20;89.20;;;;;;5135555;27;20042;-75
2021/10/27 03:37:18;;;;;;;11.02;4.55;;;6.30;89.40;;;;;;5135510;27;20023;-75
2021/10/27 03:39:44;;;;;;;8.73;4.35;;;6.20;89.00;;;;;;5135581;27;20027;-76
2021/10/27 03:42:09;;;;;;;7.85;4.60;;;6.30;89.10;;;;;;5135474;27;20475;-78
2021/10/27 03:44:35;;;;;;;9.88;4.45;;;6.20;89.10;;;;;;5135383;27;20034;-79
2021/10/27 03:47:00;;;;;;;11.35;4.82;;;6.20;89.10;;;;;;5116827;27;20026;-77
2021/10/27 03:49:26;;;;;;;7.97;4.40;;;6.30;88.80;;;;;;5135579;27;20023;-77
2021/10/27 03:51:52;;;;;;;10.13;4.50;;;6.20;88.00;;;;;;5135149;27;20051;-78
2021/10/27 03:54:18;;;;;;;6.30;4.22;;;6.20;87.30;;;;;;5135229;27;20015;-77
2021/10/27 03:56:43;;;;;;;6.72;4.10;;;6.10;87.00;;;;;;5135042;27;20375;-76
2021/10/27 03:59:09;;;;;;;10.15;4.53;;;5.90;87.30;;;;;;5134972;27;20047;-77
2021/10/27 04:01:34;;;;;;;6.38;4.10;;;5.90;87.90;;;;;;5135183;27;20578;-78
2021/10/27 04:04:00;;;;;;;9.90;4.45;;;5.90;88.30;;;;;;5134981;27;20068;-77
2021/10/27 04:06:26;;;;;;;6.53;4.25;;;5.70;89.00;;;;;;5135245;27;20023;-78
2021/10/27 04:08:51;;;;;;;6.90;4.55;;;5.70;89.50;;;;;;5135232;27;20021;-78
2021/10/27 04:11:17;;;;;;;9.32;4.55;;;5.70;89.30;;;;;;5135222;27;20037;-78
2021/10/27 04:13:43;;;;;;;8.32;5.15;;;5.70;89.00;;;;;;5135002;27;20024;-77
2021/10/27 04:16:08;;;;;;;9.60;5.07;;;5.80;88.80;;;;;;5134913;27;20065;-79
2021/10/27 04:18:34;;;;;;;8.30;4.22;;;5.80;88.60;;;;;;5134708;27;20106;-77
2021/10/27 04:21:00;;;;;;;9.57;4.70;;;5.70;88.40;;;;;;5134337;27;20019;-77
2021/10/27 04:23:25;;;;;;;7.72;4.72;;;5.70;88.40;;;;;;5134299;27;20026;-76
2021/10/27 04:25:51;;;;;;;6.88;3.95;;;5.70;88.50;;;;;;5116261;27;20395;-77
2021/10/27 04:28:16;;;;;;;6.97;4.20;;;5.80;88.40;;;;;;5134563;27;20027;-77
2021/10/27 04:30:42;;;;;;;10.77;5.38;;;5.80;88.40;;;;;;5134466;27;20041;-77
2021/10/27 04:33:20;;;;;;;11.02;4.38;;;5.90;88.30;;;;;;5134621;27;20015;-78
2021/10/27 04:35:46;;;;;;;9.70;4.80;;;5.90;88.40;;;;;;5134350;27;20442;-78
2021/10/27 04:38:16;;;;;;;7.82;4.30;;;5.90;88.20;;;;;;5135603;27;20043;-77
2021/10/27 04:40:43;;;;;;;9.30;5.10;;;5.90;88.10;;;;;;5134489;27;20468;-76
2021/10/27 04:43:09;;;;;;;8.57;5.10;;;5.90;88.00;;;;;;5134297;27;20016;-77
2021/10/27 04:45:35;;;;;;;8.38;5.10;;;5.90;88.00;;;;;;5134208;27;20031;-75
2021/10/27 04:48:01;;;;;;;8.48;5.00;;;5.90;87.90;;;;;;5134072;27;20378;-76
2021/10/27 04:50:27;;;;;;;6.47;4.35;;;5.90;87.80;;;;;;5134243;27;20597;-75
2021/10/27 04:52:53;;;;;;;7.28;5.03;;;6.00;87.50;;;;;;5134183;27;20106;-75
2021/10/27 04:55:19;;;;;;;13.23;5.50;;;5.90;87.20;;;;;;5134086;27;20051;-76
2021/10/27 04:57:45;;;;;;;7.50;4.93;;;6.00;87.40;;;;;;5134213;27;20459;-77
2021/10/27 05:00:11;;;;;;;8.98;5.07;;;6.00;87.40;;;;;;5134181;27;20019;-75
2021/10/27 05:02:37;;;;;;;7.82;4.88;;;6.00;87.30;;;;;;5134213;27;20116;-77
2021/10/27 05:05:03;;;;;;;7.60;4.57;;;6.00;87.10;;;;;;5134000;27;20468;-75
2021/10/27 05:07:29;;;;;;;12.70;5.47;;;6.00;86.80;;;;;;5134120;27;20043;-78
2021/10/27 05:09:55;;;;;;;7.45;5.28;;;6.00;86.30;;;;;;5149882;27;20317;-76
2021/10/27 05:12:21;;;;;;;10.23;5.80;;;6.00;86.20;;;;;;5134359;28;20375;-76
2021/10/27 05:14:47;;;;;;;8.27;5.43;;;6.00;85.70;;;;;;5133949;28;20019;-78
2021/10/27 05:17:13;;;;;;;9.35;5.60;;;5.90;85.70;;;;;;5133886;28;20031;-77
2021/10/27 05:19:44;;;;;;;14.13;6.22;;;5.80;85.70;;;;;;5134430;28;20019;-78
2021/10/27 05:22:11;;;;;;;10.02;6.63;;;5.70;86.00;;;;;;5133492;28;20031;-78
2021/10/27 05:24:37;;;;;;;10.93;6.45;;;5.70;86.10;;;;;;5133610;28;20028;-78
2021/10/27 05:27:04;;;;;;;8.75;5.80;;;5.70;86.30;;;;;;5133623;28;20471;-77
2021/10/27 05:29:29;;;;;;;10.85;6.72;;;5.70;86.30;;;;;;5133721;28;20055;-78
2021/10/27 05:31:55;;;;;;;12.30;7.82;;;5.60;86.40;;;;;;5134149;27;20357;-77
2021/10/27 05:34:21;;;;;;;14.77;6.90;;;5.50;86.90;;;;;;5137080;27;20024;-76
2021/10/27 05:36:47;;;;;;;13.30;6.63;;;5.50;86.70;;;;;;5137862;27;20055;-76
2021/10/27 05:39:13;;;;;;;13.35;7.03;;;5.50;86.70;;;;;;5137916;27;20115;-77
2021/10/27 05:41:44;;;;;;;13.35;6.85;;;5.50;86.70;;;;;;5137915;27;20065;-75
2021/10/27 05:44:10;;;;;;;11.27;6.85;;;5.50;86.90;;;;;;5119701;27;20395;-77
2021/10/27 05:46:36;;;;;;;13.55;7.43;;;5.50;87.20;;;;;;5137550;27;20023;-77
2021/10/27 05:49:12;;;;;;;14.43;7.63;;;5.50;87.30;;;;;;5137521;27;20016;-77
2021/10/27 05:51:50;;;;;;;11.10;6.57;;;5.50;87.10;;;;;;5137456;27;20415;-78
2021/10/27 05:57:01;;;;;;;13.82;7.05;;;5.60;87.70;;;;;;5137236;27;20076;-76
2021/10/27 05:59:27;;;;;;;13.60;6.15;;;5.70;87.60;;;;;;5137455;27;20019;-76
2021/10/27 06:01:53;;;;;;;13.75;6.82;;;5.60;87.70;;;;;;5137205;27;20023;-76
2021/10/27 06:04:18;;;;;;;15.30;7.40;;;5.70;88.10;;;;;;5137176;27;20031;-76
2021/10/27 06:06:45;;;;;;;17.20;7.50;;;5.60;88.10;;;;;;5137270;27;20045;-75
2021/10/27 06:09:11;;;;;;;13.80;6.80;;;5.60;87.80;;;;;;5118667;27;20469;-77
2021/10/27 06:11:37;;;;;;;13.50;6.70;;;5.60;87.40;;;;;;5136976;27;20094;-76
2021/10/27 06:14:03;;;;;;;11.25;5.85;;;5.40;88.00;;;;;;5137128;27;20019;-77
2021/10/27 06:16:29;;;;;;;10.48;6.13;;;5.50;89.00;;;;;;5137190;27;20050;-77
2021/10/27 06:18:55;;;;;;;10.73;4.90;;;5.50;89.70;;;;;;5137127;27;20019;-77
2021/10/27 06:21:21;;;;;;;14.60;6.35;;;5.50;90.00;;;;;;5137133;27;20023;-76
2021/10/27 06:23:47;;;;;;;12.02;4.95;;;5.60;90.20;;;;;;5136936;27;20019;-77
2021/10/27 06:26:13;;;;;;;11.38;6.25;;;5.60;90.20;;;;;;5137272;27;20034;-81
2021/10/27 06:28:45;;;;;;;11.60;5.72;;;5.80;91.60;;;;;;5137794;27;20429;-80
2021/10/27 06:31:23;;;;;;;11.80;5.38;;;6.10;92.30;;;;;;5136984;27;20064;-77
2021/10/27 06:36:26;;;;;;;11.02;5.38;;;6.60;88.30;;;;;;5136617;27;20027;-75
2021/10/27 06:39:07;;;;;;;19.90;5.68;;;6.80;90.00;;;;;;5136625;27;20093;-76
2021/10/27 06:47:01;;;;;;;12.32;4.65;;;7.80;84.30;;;;;;5136442;27;20029;-74
2021/10/27 06:49:27;;;;;;;14.18;4.97;;;7.80;82.30;;;;;;5136840;27;20102;-73
2021/10/27 06:51:53;;;;;;;9.07;4.70;;;7.80;81.80;;;;;;5136684;27;20015;-75
2021/10/27 06:54:19;;;;;;;14.52;5.85;;;7.90;81.20;;;;;;5136487;27;20539;-75
2021/10/27 06:56:44;;;;;;;8.57;5.00;;;8.00;80.40;;;;;;5136532;27;20028;-75
2021/10/27 07:04:36;;;;;;;14.73;7.32;;;8.20;78.90;;;;;;5135935;27;20034;-74
2021/10/27 07:07:19;;;;;;;10.52;6.35;;;8.40;79.20;;;;;;5136047;27;20031;-75
2021/10/27 07:15:29;;;;;;;11.45;6.68;;;9.20;75.60;;;;;;5136384;27;20046;-75
2021/10/27 07:17:58;;;;;;;9.43;5.40;;;9.20;74.70;;;;;;5136022;27;20489;-75
2021/10/27 07:20:24;;;;;;;8.38;4.85;;;9.30;74.10;;;;;;5136053;27;20024;-75
2021/10/27 07:22:56;;;;;;;9.10;4.75;;;9.30;74.60;;;;;;5117637;27;20023;-74
2021/10/27 07:25:22;;;;;;;9.65;4.40;;;9.10;74.20;;;;;;5117394;27;20072;-79
2021/10/27 07:27:50;;;;;;;19.88;11.93;;;9.10;74.70;;;;;;5117485;27;20023;-82
2021/10/27 07:30:16;;;;;;;14.90;9.55;;;8.90;74.70;;;;;;5135750;27;20034;-82
2021/10/27 07:32:42;;;;;;;9.55;5.82;;;8.80;75.30;;;;;;5135995;27;20027;-82
2021/10/27 07:42:45;;;;;;;6.55;4.70;;;8.60;77.70;;;;;;5136188;27;20024;-82
2021/10/27 07:45:10;;;;;;;5.95;4.20;;;8.70;78.70;;;;;;5135773;27;20065;-80
2021/10/27 07:47:39;;;;;;;9.13;4.90;;;8.80;77.80;;;;;;5152045;27;20029;-80
2021/10/27 07:50:05;;;;;;;8.65;4.95;;;8.90;77.80;;;;;;5116485;27;20066;-81
2021/10/27 07:52:31;;;;;;;13.25;6.70;;;9.00;77.80;;;;;;5135772;27;20062;-81
2021/10/27 07:54:57;;;;;;;20.15;8.07;;;9.20;77.80;;;;;;5135312;27;20482;-81
2021/10/27 07:57:23;;;;;;;19.52;9.63;;;9.30;78.00;;;;;;5134860;27;20028;-82
2021/10/27 07:59:52;;;;;;;17.63;10.45;;;9.40;79.60;;;;;;5151863;27;20023;-80
2021/10/27 08:02:18;;;;;;;19.15;10.98;;;9.60;82.40;;;;;;5116809;27;20460;-80
2021/10/27 08:04:43;;;;;;;19.33;11.35;;;9.70;83.10;;;;;;5135429;27;20031;-81
2021/10/27 08:07:12;;;;;;;23.58;12.85;;;9.80;83.30;;;;;;5116586;27;20029;-81
2021/10/27 08:09:39;;;;;;;22.38;11.32;;;9.90;83.20;;;;;;5117298;27;20406;-79
2021/10/27 08:12:05;;;;;;;21.65;12.50;;;9.90;83.10;;;;;;5116888;27;20019;-77
2021/10/27 08:14:31;;;;;;;22.63;12.18;;;10.00;83.50;;;;;;5135327;27;20030;-78
2021/10/27 08:16:57;;;;;;;20.45;11.57;;;10.00;83.40;;;;;;5135527;27;20027;-76
2021/10/27 08:19:24;;;;;;;22.13;13.02;;;10.10;83.00;;;;;;5116995;27;20019;-76
2021/10/27 08:21:57;;;;;;;21.17;12.10;;;10.10;83.20;;;;;;5117487;27;20062;-76
2021/10/27 08:24:25;;;;;;;22.17;12.93;;;10.00;83.40;;;;;;5119080;27;20031;-74
2021/10/27 08:26:55;;;;;;;23.30;12.45;;;10.10;83.40;;;;;;5137521;27;20027;-75
2021/10/27 08:29:27;;;;;;;28.48;13.43;;;10.20;83.40;;;;;;5119670;27;20023;-79
2021/10/27 08:32:01;;;;;;;26.55;13.32;;;10.30;83.00;;;;;;5118657;27;20027;-79
2021/10/27 08:34:39;;;;;;;21.08;12.30;;;10.40;82.70;;;;;;5117091;27;20023;-76
2021/10/27 08:37:22;;;;;;;19.40;12.32;;;10.40;82.30;;;;;;5133192;27;20548;-76
2021/10/27 08:39:48;;;;;;;21.08;12.63;;;10.50;81.90;;;;;;5116516;27;20015;-77
2021/10/27 08:42:14;;;;;;;21.33;12.15;;;10.60;81.70;;;;;;5116131;27;20360;-78
2021/10/27 08:44:46;;;;;;;22.23;13.02;;;10.60;81.60;;;;;;5115950;27;20027;-77
2021/10/27 08:47:13;;;;;;;16.98;11.52;;;10.70;81.60;;;;;;5116481;27;20155;-80
2021/10/27 08:49:41;;;;;;;17.35;11.48;;;10.80;81.30;;;;;;5116399;27;20027;-79
2021/10/27 08:52:10;;;;;;;20.73;13.18;;;10.90;80.90;;;;;;5116705;27;20023;-81
2021/10/27 08:54:36;;;;;;;19.13;12.48;;;11.00;80.60;;;;;;5116887;27;20375;-77
2021/10/27 08:57:08;;;;;;;17.90;11.95;;;11.10;80.60;;;;;;5116649;27;20033;-81
2021/10/27 09:36:21;;;;;;;16.95;10.70;;;13.80;69.50;;;;;;5144907;28;20023;-75
2021/10/27 09:42:09;;;;;;;13.93;10.05;;;14.20;68.60;;;;;;5138810;28;20589;-78
2021/10/27 09:56:27;;;;;;;;;;;15.10;64.60;;;;;;5134625;28;20061;-78
2021/10/27 10:04:40;;;;;;;12.50;7.60;;;15.40;62.10;;;;;;5059844;28;20044;-78
2021/10/27 10:07:06;;;;;;;13.10;8.15;;;15.70;62.60;;;;;;5095067;28;20051;-77
2021/10/27 10:09:37;;;;;;;14.55;7.95;;;15.70;60.90;;;;;;5094489;28;20031;-80
2021/10/27 10:12:04;;;;;;;13.07;7.25;;;15.90;60.90;;;;;;5113136;28;20428;-79
2021/10/27 10:14:30;;;;;;;14.95;7.43;;;16.20;60.40;;;;;;5094414;28;20028;-79
2021/10/27 10:16:58;;;;;;;12.05;6.90;;;16.40;59.40;;;;;;5094704;28;20064;-77
2021/10/27 10:19:35;;;;;;;9.95;6.78;;;16.60;58.50;;;;;;5096087;28;20024;-77
2021/10/27 10:22:02;;;;;;;8.55;6.00;;;16.80;57.60;;;;;;5098091;28;20065;-77
2021/10/27 10:24:32;;;;;;;10.05;6.47;;;17.00;57.10;;;;;;5097633;28;20059;-78
2021/10/27 10:27:02;;;;;;;9.35;6.40;;;17.40;56.70;;;;;;5097989;28;20110;-73
2021/10/27 10:32:18;;;;;;;10.13;6.63;;;18.30;54.30;;;;;;5116382;28;20031;-75
2021/10/27 10:34:50;;;;;;;9.43;5.78;;;18.60;52.40;;;;;;5098056;28;20277;-78
2021/10/27 10:37:39;;;;;;;10.25;6.43;;;18.80;51.30;;;;;;5098607;28;20023;-78
2021/10/27 10:40:29;;;;;;;9.40;6.05;;;18.90;50.50;;;;;;5097926;28;20043;-78
2021/10/27 10:43:06;;;;;;;8.02;5.95;;;19.00;50.60;;;;;;5097398;28;20134;-78
2021/10/27 10:45:49;;;;;;;10.05;5.97;;;18.90;50.30;;;;;;5099149;28;20174;-76
2021/10/27 11:23:17;;;;;;;6.13;3.67;;;21.70;40.80;;;;;;5115215;28;20127;-75
2021/10/27 11:40:07;;;;;;;7.18;3.20;;;19.60;42.30;;;;;;5134985;28;20078;-76
2021/10/27 11:42:58;;;;;;;8.82;3.70;;;19.60;42.50;;;;;;5118314;28;20076;-76
2021/10/27 11:48:16;;;;;;;6.32;3.22;;;20.20;40.10;;;;;;5115963;27;20511;-75
2021/10/27 11:50:43;;;;;;;6.75;3.58;;;20.20;41.10;;;;;;5095743;28;20190;-76
2021/10/27 11:53:29;;;;;;;4.18;1.98;;;20.40;40.10;;;;;;5114269;28;20051;-78
2021/10/27 11:55:56;;;;;;;3.95;1.83;;;20.30;38.90;;;;;;5114348;28;20379;-76
2021/10/27 11:58:36;;;;;;;5.15;2.85;;;20.10;39.40;;;;;;5114040;28;20107;-75
2021/10/27 12:01:04;;;;;;;3.40;2.70;;;20.10;40.30;;;;;;5114550;28;20387;-75
2021/10/27 12:03:42;;;;;;;5.70;3.67;;;20.40;40.20;;;;;;5099376;27;20015;-75
2021/10/27 12:06:17;;;;;;;6.45;3.67;;;20.60;39.60;;;;;;5117070;27;20069;-76
2021/10/27 12:14:14;;;;;;;7.80;2.88;;;20.20;38.40;;;;;;5134861;27;20027;-75
2021/10/27 12:19:27;;;;;;;7.00;2.25;;;20.40;39.70;;;;;;5118753;27;20035;-76
2021/10/27 12:22:03;;;;;;;4.55;2.65;;;20.90;38.90;;;;;;5135372;27;20409;-74
2021/10/27 12:24:50;;;;;;;4.43;2.38;;;21.10;38.30;;;;;;5135241;27;20061;-76
2021/10/27 12:27:21;;;;;;;4.88;2.70;;;21.30;37.70;;;;;;5133160;27;20059;-75
2021/10/27 12:29:52;;;;;;;4.95;2.25;;;21.80;36.30;;;;;;5134772;27;20027;-74
2021/10/27 12:32:18;;;;;;;4.55;2.47;;;22.40;34.90;;;;;;5116798;27;20498;-74
2021/10/27 12:35:05;;;;;;;3.17;2.15;;;22.80;34.50;;;;;;5134528;27;20027;-73
2021/10/27 12:40:19;;;;;;;3.28;1.90;;;23.90;31.50;;;;;;5134693;27;20034;-73
2021/10/27 12:42:47;;;;;;;5.28;4.07;;;24.30;30.80;;;;;;5134812;27;20023;-78
2021/10/27 12:45:14;;;;;;;5.80;4.18;;;24.70;33.90;;;;;;5134428;27;20035;-75
2021/10/27 12:47:40;;;;;;;6.03;4.60;;;24.80;34.40;;;;;;5116138;27;20479;-75
2021/10/27 12:50:12;;;;;;;7.65;4.55;;;24.90;34.50;;;;;;5134315;27;20416;-74
2021/10/27 12:52:55;;;;;;;4.00;3.60;;;25.20;34.20;;;;;;5116091;27;20387;-74
2021/10/27 12:55:28;;;;;;;5.13;3.75;;;25.40;33.80;;;;;;5116118;27;20030;-74
2021/10/27 12:58:07;;;;;;;5.05;4.05;;;25.80;30.80;;;;;;5116089;27;20015;-75
2021/10/27 13:05:52;;;;;;;7.35;4.63;;;26.80;30.30;;;;;;5134487;27;20027;-76
2021/10/27 13:08:44;;;;;;;6.35;4.28;;;27.10;30.00;;;;;;5150649;27;20558;-76
2021/10/27 13:19:24;;;;;;;7.53;5.05;;;28.90;26.00;;;;;;5135140;27;20038;-73
2021/10/27 13:30:24;;;;;;;6.43;3.97;;;32.00;21.90;;;;;;5134113;28;20088;-74
2021/10/27 13:32:55;;;;;;;5.72;4.10;;;32.70;20.30;;;;;;5141839;28;20043;-74
2021/10/27 13:35:22;;;;;;;4.32;3.33;;;33.10;19.50;;;;;;5147278;28;20027;-74
2021/10/27 13:37:48;;;;;;;5.50;4.10;;;33.90;18.80;;;;;;5113525;28;20477;-74
2021/10/27 13:40:14;;;;;;;8.65;4.22;;;34.60;18.10;;;;;;5133644;28;20433;-76
2021/10/27 13:42:47;;;;;;;4.35;3.35;;;35.40;17.60;;;;;;5133651;28;20028;-81
2021/10/27 14:06:58;;;;;;;4.35;3.33;;;38.40;13.20;;;;;;5137226;27;20030;-75
2021/10/27 14:14:40;;;;;;;3.95;3.28;;;38.80;12.60;;;;;;5136774;27;20084;-75
2021/10/27 14:47:35;;;;;;;5.20;3.78;;;39.00;12.50;;;;;;5136391;27;20029;-75
2021/10/27 15:20:21;;;;;;;5.90;4.60;;;32.90;18.20;;;;;;5115400;28;20097;-74
2021/10/27 15:25:30;;;;;;;6.30;4.15;;;31.20;20.20;;;;;;5114189;28;20070;-74
2021/10/27 15:41:21;;;;;;;7.47;4.80;;;26.40;29.20;;;;;;5114483;28;20124;-73
2021/10/27 15:52:31;;;;;;;10.85;5.35;;;22.10;38.70;;;;;;5102531;28;20074;-78
2021/10/27 15:54:57;;;;;;;8.43;4.95;;;21.60;39.90;;;;;;5114789;28;20019;-77
2021/10/27 15:57:22;;;;;;;8.15;5.07;;;20.30;43.90;;;;;;5114465;28;20035;-78
2021/10/27 15:59:50;;;;;;;7.00;4.10;;;19.50;46.50;;;;;;5113888;28;20464;-79
2021/10/27 16:02:17;;;;;;;8.05;4.47;;;19.10;48.10;;;;;;5114321;28;20023;-79
2021/10/27 16:04:42;;;;;;;8.27;3.92;;;18.80;49.10;;;;;;5114480;28;20051;-78
2021/10/27 16:07:10;;;;;;;5.03;3.38;;;18.00;51.30;;;;;;5114321;28;20051;-79
2021/10/27 16:09:43;;;;;;;5.40;3.70;;;17.70;52.10;;;;;;5114120;28;20484;-78
2021/10/27 16:12:08;;;;;;;8.68;5.13;;;17.30;53.10;;;;;;5114417;28;20016;-79
2021/10/27 16:14:34;;;;;;;6.68;4.53;;;16.90;54.30;;;;;;5114064;28;20034;-78
2021/10/27 16:17:00;;;;;;;8.27;4.38;;;16.60;55.30;;;;;;5129287;27;20108;-77
2021/10/27 16:19:26;;;;;;;7.50;4.30;;;16.30;57.30;;;;;;5114035;28;20059;-78
2021/10/27 16:21:58;;;;;;;7.22;4.18;;;16.00;58.00;;;;;;5113673;28;20496;-75
2021/10/27 16:24:25;;;;;;;8.85;5.93;;;15.80;59.10;;;;;;5094902;28;20111;-76
2021/10/27 16:26:58;;;;;;;8.63;5.28;;;15.70;60.80;;;;;;5095735;28;20077;-76
2021/10/27 16:29:23;;;;;;;11.43;5.35;;;15.50;61.00;;;;;;5114180;28;20058;-77
2021/10/27 16:31:50;;;;;;;11.75;6.05;;;15.40;62.70;;;;;;5130021;27;20028;-77
2021/10/27 16:34:18;;;;;;;8.63;5.05;;;15.30;62.00;;;;;;5113897;28;20019;-78
2021/10/27 16:36:45;;;;;;;9.25;5.18;;;15.20;62.00;;;;;;5113793;28;20023;-76
2021/10/27 16:39:12;;;;;;;11.63;6.32;;;15.20;62.80;;;;;;5113288;28;20043;-76
2021/10/27 16:41:39;;;;;;;12.43;5.72;;;15.10;62.30;;;;;;5113840;28;20460;-75
2021/10/27 16:44:08;;;;;;;15.27;8.68;;;15.00;62.60;;;;;;5113429;28;20526;-76
2021/10/27 16:46:35;;;;;;;17.48;10.57;;;15.10;62.70;;;;;;5078850;28;20019;-81
2021/10/27 16:49:02;;;;;;;16.73;10.18;;;14.90;61.60;;;;;;5113641;28;20027;-75
2021/10/27 16:51:29;;;;;;;15.52;9.68;;;14.70;61.50;;;;;;5113321;28;20019;-75
2021/10/27 16:53:56;;;;;;;18.05;10.00;;;14.50;61.80;;;;;;5095403;28;20020;-73
2021/10/27 16:56:21;;;;;;;19.80;10.95;;;14.30;62.60;;;;;;5113222;28;20031;-73
2021/10/27 16:58:48;;;;;;;35.88;18.63;;;14.20;62.80;;;;;;5113312;28;20077;-72
2021/10/27 17:01:14;;;;;;;15.70;9.90;;;14.00;63.20;;;;;;5112866;28;20030;-72
2021/10/27 17:03:40;;;;;;;11.48;7.03;;;13.80;63.60;;;;;;5113127;28;20024;-72
2021/10/27 17:06:06;;;;;;;9.80;5.20;;;13.40;63.70;;;;;;5113154;28;20024;-72
2021/10/27 17:08:31;;;;;;;8.52;4.90;;;13.20;64.50;;;;;;5112974;28;20019;-72
2021/10/27 17:10:58;;;;;;;10.95;4.50;;;13.10;64.90;;;;;;5128974;27;20533;-73
2021/10/27 17:13:24;;;;;;;8.13;5.13;;;13.00;65.60;;;;;;5113249;28;20019;-72
2021/10/27 17:15:50;;;;;;;11.57;5.07;;;12.80;66.40;;;;;;5112882;28;20408;-73
2021/10/27 17:18:15;;;;;;;12.88;6.50;;;12.70;66.70;;;;;;5129132;27;20404;-72
2021/10/27 17:20:44;;;;;;;10.98;5.88;;;12.50;66.70;;;;;;5113150;28;20019;-72
2021/10/27 17:23:26;;;;;;;12.95;6.88;;;12.30;67.30;;;;;;5113328;28;20075;-73
2021/10/27 17:25:52;;;;;;;13.43;6.68;;;12.20;67.30;;;;;;5113660;28;20024;-72
2021/10/27 17:28:17;;;;;;;16.92;7.75;;;12.00;68.10;;;;;;5113201;28;20479;-72
2021/10/27 17:30:46;;;;;;;11.00;6.20;;;12.00;68.60;;;;;;5117272;28;20142;-72
2021/10/27 17:33:12;;;;;;;10.68;5.80;;;11.90;68.70;;;;;;5117345;28;20488;-72
2021/10/27 17:35:38;;;;;;;13.38;6.15;;;11.90;68.60;;;;;;5117196;28;20042;-73
2021/10/27 17:38:04;;;;;;;12.10;5.95;;;11.80;68.60;;;;;;5116835;28;20521;-72